Flight Track Log - Related Links

Times and Time Zones

All times are in EDT time to prevent confusion due to time zone crossing. See the GGA1 flight status page for this flight to view local times or setup timezone preferences in your user account.

Time Position Orientation Groundspeed Altitude Reporting Facility
EDT Latitude Longitude Course Direction KTS MPH feet Rate Location/Type
Mon 05:19:23 PM 41.4000 -73.1000 20° North 158 182 4,600  Level New York TRACON
Mon 05:20:03 PM 41.4233 -73.0850 26° Northeast 163 188 5,700 955 Climbing Boston Center
Mon 05:20:51 PM 41.4669 -73.0883 357° North 220 253 6,000 1,101 Climbing Boston Center
Mon 05:21:52 PM 41.5294 -73.1000 352° North 214 246 7,700 1,737 Climbing Boston Center
Mon 05:22:45 PM 41.5753 -73.1033 357° North 214 246 9,300 1,221 Climbing Boston Center
Mon 05:23:45 PM 41.6272 -73.1067 357° North 219 252 10,000 850 Climbing Boston Center
Mon 05:24:00 PM 41.7257 -73.0705 20° North  Level FlightAware Approximate
Mon 05:24:45 PM 41.7025 -73.0908 North 236 272 11,000  Level Boston Center
Mon 05:25:45 PM 41.7506 -73.0772 12° North 216 249 13,100 1,900 Climbing Boston Center
Mon 05:26:45 PM 41.8111 -73.0556 15° North 197 227 14,800 1,550 Climbing Boston Center
Mon 05:27:45 PM 41.8569 -73.0644 352° North 192 221 16,200 1,500 Climbing Boston Center
Mon 05:28:45 PM 41.9108 -73.0956 337° Northwest 187 215 17,800 1,450 Climbing Boston Center
Mon 05:29:45 PM 41.9628 -73.1269 336° Northwest 192 221 19,100 1,200 Climbing Boston Center
Mon 05:30:45 PM 42.0167 -73.1497 343° North 199 229 20,200 950 Climbing Boston Center
Mon 05:31:45 PM 42.0728 -73.1783 339° North 199 229 21,000 400 Climbing Boston Center
Mon 05:32:45 PM 42.1289 -73.2044 341° North 216 249 21,000 750 Level Boston Center
Mon 05:33:45 PM 42.1536 -73.2747 295° West 206 237 22,500 1,300 Climbing Boston Center
Mon 05:34:45 PM 42.1467 -73.3444 262° West 179 206 23,600 1,050 Climbing Boston Center
Mon 05:35:45 PM 42.1525 -73.4089 277° West 173 199 24,600 900 Climbing Boston Center
Mon 05:36:45 PM 42.1475 -73.4789 265° West 183 211 25,400 700 Climbing Boston Center
Mon 05:37:45 PM 42.1406 -73.5544 263° West 194 223 26,000 300 Climbing Boston Center
Mon 05:38:45 PM 42.1397 -73.6411 269° West 213 245 26,000  Level Boston Center
Mon 05:39:45 PM 42.1367 -73.7336 267° West 235 270 26,000  Level Boston Center
Mon 05:40:45 PM 42.1314 -73.8203 265° West 241 277 26,000  Level Boston Center
Mon 05:41:45 PM 42.1283 -73.9069 267° West 241 277 26,000  Level Boston Center
Mon 05:42:45 PM 42.1250 -73.9936 267° West 236 272 26,000  Level Boston Center
Mon 05:43:45 PM 42.1197 -74.0775 265° West 231 266 26,000  Level Boston Center
Mon 05:44:45 PM 42.1183 -74.1642 269° West 236 272 26,000  Level Boston Center
Mon 05:45:45 PM 42.1150 -74.2508 267° West 236 272 26,000  Level Boston Center
Mon 05:46:45 PM 42.1117 -74.3347 267° West 236 272 26,000  Level Boston Center
Mon 05:48:44 PM 42.1042 -74.4972 266° West 234 269 26,000  Level New York Center
Mon 05:49:42 PM 42.0994 -74.5833 266° West 234 269 26,000  Level New York Center
Mon 05:50:43 PM 42.0942 -74.6808 266° West 241 277 26,000  Level New York Center
Mon 05:51:43 PM 42.0892 -74.7672 266° West 236 272 26,000  Level New York Center
Mon 05:52:42 PM 42.0861 -74.8564 267° West 236 272 26,000  Level New York Center
Mon 05:53:43 PM 42.0833 -74.9428 268° West 236 272 26,000  Level New York Center
Mon 05:54:44 PM 42.0761 -75.0289 264° West 236 272 26,000  Level New York Center
Mon 05:55:44 PM 42.0728 -75.1181 267° West 236 272 26,000  Level New York Center
Mon 05:56:42 PM 42.0675 -75.2044 265° West 236 272 26,000  Level New York Center
Mon 05:57:42 PM 42.0644 -75.2881 267° West 236 272 26,000  Level New York Center
Mon 05:58:42 PM 42.0303 -75.3611 238° Southwest 231 266 26,000  Level New York Center
Mon 05:59:43 PM 42.0025 -75.4344 243° Southwest 231 266 26,000  Level New York Center
Mon 06:00:44 PM 41.9767 -75.5106 245° Southwest 231 266 26,000  Level New York Center
Mon 06:01:43 PM 41.9444 -75.5864 240° Southwest 237 273 26,000  Level New York Center
Mon 06:02:44 PM 41.9122 -75.6594 239° Southwest 237 273 26,000  Level New York Center
Mon 06:03:44 PM 41.8822 -75.7325 241° Southwest 237 273 26,000  Level New York Center
Mon 06:04:42 PM 41.8519 -75.8081 242° Southwest 237 273 26,000  Level New York Center
Mon 06:05:44 PM 41.8194 -75.8836 240° Southwest 237 273 26,000  Level New York Center
Mon 06:06:44 PM 41.7892 -75.9592 242° Southwest 237 273 26,000  Level New York Center
Mon 06:07:43 PM 41.7567 -76.0344 240° Southwest 237 273 26,000  Level New York Center
Mon 06:08:43 PM 41.7264 -76.1100 242° Southwest 237 273 26,000  Level New York Center
Mon 06:09:43 PM 41.6936 -76.1878 241° Southwest 237 273 26,000  Level New York Center
Mon 06:10:44 PM 41.6631 -76.2631 242° Southwest 237 273 26,000  Level New York Center
Mon 06:11:42 PM 41.6325 -76.3383 242° Southwest 237 273 26,000  Level New York Center
Mon 06:12:43 PM 41.5997 -76.4133 240° Southwest 237 273 26,000  Level New York Center
Mon 06:13:44 PM 41.5692 -76.4883 241° Southwest 237 273 26,000  Level New York Center
Mon 06:14:42 PM 41.5361 -76.5658 240° Southwest 237 273 26,000  Level New York Center
Mon 06:15:43 PM 41.5033 -76.6433 241° Southwest 237 273 26,000  Level New York Center
Mon 06:16:43 PM 41.4725 -76.7156 240° Southwest 243 280 26,000  Level New York Center
Mon 06:17:43 PM 41.4375 -76.7925 239° Southwest 243 280 26,000  Level New York Center
Mon 06:18:43 PM 41.4064 -76.8700 242° Southwest 243 280 26,000  Level New York Center
Mon 06:19:44 PM 41.3733 -76.9472 240° Southwest 237 273 26,000  Level New York Center
Mon 06:20:44 PM 41.3403 -77.0217 239° Southwest 237 273 26,000  Level New York Center
Mon 06:21:42 PM 41.3069 -77.0986 240° Southwest 237 273 26,000  Level New York Center
Mon 06:22:43 PM 41.2736 -77.1756 240° Southwest 237 273 26,000  Level New York Center
Mon 06:23:43 PM 41.2403 -77.2553 241° Southwest 237 273 26,000  Level New York Center
Mon 06:24:42 PM 41.2067 -77.3347 241° Southwest 237 273 26,000  Level New York Center
Mon 06:25:43 PM 41.1733 -77.4089 239° Southwest 237 273 26,000  Level New York Center
Mon 06:28:08 PM 41.0856 -77.6106 240° Southwest 254 292 26,000  Level Cleveland Center
Mon 06:29:08 PM 41.0519 -77.6892 240° Southwest 254 292 26,000  Level Cleveland Center
Mon 06:30:08 PM 41.0164 -77.7678 239° Southwest 254 292 26,000  Level Cleveland Center
Mon 06:31:08 PM 40.9808 -77.8464 239° Southwest 254 292 26,000  Level Cleveland Center
Mon 06:32:08 PM 40.9472 -77.9247 240° Southwest 259 298 26,000  Level Cleveland Center
Mon 06:33:08 PM 40.9117 -78.0031 239° Southwest 259 298 26,000  Level Cleveland Center
Mon 06:34:08 PM 40.8672 -78.0708 229° Southwest 259 298 26,000 -50 Level Cleveland Center
Mon 06:35:08 PM 40.8228 -78.1383 229° Southwest 254 292 25,900  Descending Cleveland Center
Mon 06:36:08 PM 40.7806 -78.2083 231° Southwest 248 285 26,000 50 Climbing Cleveland Center
Mon 06:37:08 PM 40.7381 -78.2731 229° Southwest 248 285 26,000  Level Cleveland Center
Mon 06:38:08 PM 40.6956 -78.3375 229° Southwest 237 273 26,000  Level Cleveland Center
Mon 06:39:08 PM 40.6553 -78.4072 233° Southwest 237 273 26,000  Level Cleveland Center
Mon 06:40:08 PM 40.6233 -78.4850 242° Southwest 237 273 26,000  Level Cleveland Center
Mon 06:41:08 PM 40.5892 -78.5597 239° Southwest 242 278 26,000  Level Cleveland Center
Mon 06:42:08 PM 40.5550 -78.6292 237° Southwest 237 273 26,000  Level Cleveland Center
Mon 06:43:08 PM 40.5144 -78.6931 230° Southwest 237 273 26,000  Level Cleveland Center
Mon 06:44:08 PM 40.4736 -78.7625 232° Southwest 237 273 26,000  Level Cleveland Center
Mon 06:45:08 PM 40.4372 -78.8317 235° Southwest 237 273 26,000  Level Cleveland Center
Mon 06:46:08 PM 40.3925 -78.8956 227° Southwest 237 273 26,000  Level Cleveland Center
Mon 06:47:08 PM 40.3475 -78.9567 226° Southwest 237 273 26,000  Level Cleveland Center
Mon 06:48:08 PM 40.3025 -79.0178 226° Southwest 237 273 26,000  Level Cleveland Center
Mon 06:49:08 PM 40.2594 -79.0842 230° Southwest 237 273 26,000  Level Cleveland Center
Mon 06:50:08 PM 40.2144 -79.1447 226° Southwest 237 273 26,000  Level Cleveland Center
Mon 06:51:08 PM 40.1736 -79.2056 229° Southwest 237 273 26,000  Level Cleveland Center
Mon 06:52:08 PM 40.1283 -79.2661 226° Southwest 237 273 26,000  Level Cleveland Center
Mon 06:53:08 PM 40.0875 -79.3294 230° Southwest 237 273 26,000  Level Cleveland Center
Mon 06:54:08 PM 40.0442 -79.3925 228° Southwest 237 273 26,000  Level Cleveland Center
Mon 06:55:08 PM 40.0011 -79.4531 227° Southwest 237 273 26,000 -50 Level Cleveland Center
Mon 06:56:08 PM 39.9558 -79.5133 226° Southwest 237 273 25,900  Descending Cleveland Center
Mon 06:57:08 PM 39.9106 -79.5736 226° Southwest 237 273 26,000  Climbing Cleveland Center
Mon 06:58:08 PM 39.8653 -79.6392 228° Southwest 242 278 25,900 -50 Descending Cleveland Center
Mon 06:59:08 PM 39.8200 -79.7019 227° Southwest 242 278 25,900 50 Level Cleveland Center
Mon 07:00:08 PM 39.7767 -79.7619 227° Southwest 242 278 26,000 50 Climbing Cleveland Center
Mon 07:01:08 PM 39.7333 -79.8272 229° Southwest 242 278 26,000 -50 Level Cleveland Center
Mon 07:02:08 PM 39.6942 -79.8950 233° Southwest 242 278 25,900 -50 Descending Cleveland Center
Mon 07:03:08 PM 39.6569 -79.9683 237° Southwest 242 278 25,900 50 Level Cleveland Center
Mon 07:04:08 PM 39.6197 -80.0361 235° Southwest 242 278 26,000 50 Climbing Cleveland Center
Mon 07:05:08 PM 39.5847 -80.1089 238° Southwest 242 278 26,000 -50 Level Cleveland Center
Mon 07:06:08 PM 39.5475 -80.1792 236° Southwest 242 278 25,900  Descending Cleveland Center
Mon 07:07:08 PM 39.5142 -80.2386 234° Southwest 242 278 26,000 50 Climbing Cleveland Center
Mon 07:08:08 PM 39.4706 -80.3008 228° Southwest 242 278 26,000 -50 Level Cleveland Center
Mon 07:09:08 PM 39.4208 -80.3547 220° Southwest 237 273 25,900 -43 Descending Cleveland Center
Mon 07:10:27 PM 39.3478 -80.4342 220° Southwest 235 270 25,900  Level Indianapolis Center
Mon 07:11:29 PM 39.3017 -80.4903 223° Southwest 229 264 25,900 48 Level Indianapolis Center
Mon 07:12:31 PM 39.2508 -80.5389 217° Southwest 227 261 26,000  Climbing Indianapolis Center
Mon 07:13:32 PM 39.2039 -80.5956 223° Southwest 230 265 25,900 -49 Descending Indianapolis Center
Mon 07:14:34 PM 39.1572 -80.6506 222° Southwest 229 264 25,900  Level Indianapolis Center
Mon 07:15:36 PM 39.1100 -80.7056 222° Southwest 228 262 25,900  Level Indianapolis Center
Mon 07:16:37 PM 39.0625 -80.7583 221° Southwest 227 261 25,900  Level Indianapolis Center
Mon 07:17:39 PM 39.0122 -80.8311 228° Southwest 227 261 25,900  Level Indianapolis Center
Mon 07:18:40 PM 38.9703 -80.8903 228° Southwest 224 258 25,900  Level Indianapolis Center
Mon 07:19:42 PM 38.9342 -80.9550 234° Southwest 228 262 25,900  Level Indianapolis Center
Mon 07:20:44 PM 38.9089 -81.0289 246° West 226 260 25,900  Level Indianapolis Center
Mon 07:21:45 PM 38.8831 -81.0997 245° Southwest 220 253 25,900 49 Level Indianapolis Center
Mon 07:22:47 PM 38.8353 -81.1514 220° Southwest 223 257 26,000 48 Climbing Indianapolis Center
Mon 07:23:49 PM 38.7886 -81.2011 220° Southwest 218 251 26,000 -49 Level Indianapolis Center
Mon 07:24:50 PM 38.7383 -81.2483 216° Southwest 222 255 25,900 -49 Descending Indianapolis Center
Mon 07:25:52 PM 38.6844 -81.2881 210° Southwest 237 273 25,900  Level Indianapolis Center
Mon 07:26:54 PM 38.6064 -81.3089 192° South 237 273 25,900  Level Indianapolis Center
Mon 07:27:55 PM 38.5414 -81.3267 192° South 238 274 25,900  Level Indianapolis Center
Mon 07:28:57 PM 38.4781 -81.3517 197° South 237 273 25,900  Level Indianapolis Center
Mon 07:29:59 PM 38.4139 -81.3786 198° South 239 275 25,900  Level Indianapolis Center
Mon 07:31:00 PM 38.3544 -81.4122 204° Southwest 234 269 25,900  Level Indianapolis Center
Mon 07:32:02 PM 38.2956 -81.4472 205° Southwest 232 267 25,900  Level Indianapolis Center
Mon 07:33:04 PM 38.2350 -81.4794 203° Southwest 234 269 25,900  Level Indianapolis Center
Mon 07:34:05 PM 38.1703 -81.4972 192° South 239 275 25,900  Level Indianapolis Center
Mon 07:35:07 PM 38.1069 -81.5183 195° South 236 272 25,900  Level Indianapolis Center
Mon 07:36:08 PM 38.0411 -81.5372 193° South 241 277 25,900  Level Indianapolis Center
Mon 07:37:10 PM 37.9628 -81.5603 193° South 240 276 25,900  Level Indianapolis Center
Mon 07:38:12 PM 37.8992 -81.5800 194° South 236 272 25,900  Level Indianapolis Center
Mon 07:39:13 PM 37.8294 -81.6000 193° South 240 276 25,900  Level Indianapolis Center
Mon 07:40:15 PM 37.7653 -81.6158 191° South 241 277 25,900  Level Indianapolis Center
Mon 07:41:17 PM 37.6986 -81.6325 191° South 242 278 25,900  Level Indianapolis Center
Mon 07:42:18 PM 37.6322 -81.6472 190° South 241 277 25,900  Level Indianapolis Center
Mon 07:43:20 PM 37.5650 -81.6603 189° South 243 280 25,900  Level Indianapolis Center
Mon 07:44:21 PM 37.4986 -81.6767 191° South 242 278 25,900  Level Indianapolis Center
Mon 07:45:23 PM 37.4197 -81.6936 190° South 244 281 25,900  Level Indianapolis Center
Mon 07:46:25 PM 37.3539 -81.7069 189° South 240 276 25,900  Level Indianapolis Center
Mon 07:47:26 PM 37.2867 -81.7222 190° South 243 280 25,900  Level Indianapolis Center
Mon 07:48:28 PM 37.2206 -81.7342 188° South 239 275 25,900  Level Indianapolis Center
Mon 07:49:30 PM 37.1531 -81.7425 186° South 242 278 25,900  Level Indianapolis Center
Mon 07:50:31 PM 37.0856 -81.7544 188° South 244 281 25,900  Level Indianapolis Center
Mon 07:51:33 PM 37.0172 -81.7656 187° South 246 283 25,900  Level Indianapolis Center
Mon 07:52:35 PM 36.9369 -81.7803 188° South 249 287 25,900  Level Indianapolis Center
Mon 07:53:36 PM 36.8681 -81.7931 188° South 249 287 25,900  Level Indianapolis Center
Mon 07:54:07 PM 36.8325 -81.8033 193° South 250 288 25,900  Level Atlanta Center
Mon 07:55:07 PM 36.7639 -81.8131 186° South 255 293 25,900  Level Atlanta Center
Mon 07:56:07 PM 36.6931 -81.8253 188° South 255 293 25,900  Level Atlanta Center
Mon 07:57:07 PM 36.6244 -81.8350 186° South 255 293 25,900  Level Atlanta Center
Mon 07:58:07 PM 36.5539 -81.8472 188° South 255 293 25,900  Level Atlanta Center
Mon 07:59:07 PM 36.4872 -81.8567 186° South 255 293 25,900  Level Atlanta Center
Mon 08:00:07 PM 36.4228 -81.8689 189° South 255 293 25,900  Level Atlanta Center
Mon 08:01:07 PM 36.3519 -81.8758 185° South 255 293 25,900  Level Atlanta Center
Mon 08:02:07 PM 36.2833 -81.8831 185° South 255 293 25,900  Level Atlanta Center
Mon 08:03:07 PM 36.2172 -81.9131 200° South 250 288 25,900  Level Atlanta Center
Mon 08:04:07 PM 36.1575 -81.9558 210° Southwest 250 288 25,900  Level Atlanta Center
Mon 08:05:07 PM 36.0956 -81.9933 206° Southwest 250 288 25,900  Level Atlanta Center
Mon 08:06:07 PM 36.0356 -82.0333 208° Southwest 250 288 25,900  Level Atlanta Center
Mon 08:07:07 PM 35.9736 -82.0758 209° Southwest 250 288 25,900  Level Atlanta Center
Mon 08:08:07 PM 35.9078 -82.1211 209° Southwest 250 288 25,900  Level Atlanta Center
Mon 08:09:07 PM 35.8458 -82.1583 206° Southwest 250 288 25,900  Level Atlanta Center
Mon 08:10:07 PM 35.7836 -82.1983 208° Southwest 250 288 25,900  Level Atlanta Center
Mon 08:11:07 PM 35.7197 -82.2381 207° Southwest 257 296 25,900  Level Atlanta Center
Mon 08:12:07 PM 35.6578 -82.2778 208° Southwest 257 296 25,900 -150 Level Atlanta Center
Mon 08:13:07 PM 35.5956 -82.3147 206° Southwest 262 302 25,600 -700 Descending Atlanta Center
Mon 08:14:07 PM 35.5253 -82.3597 208° Southwest 274 315 24,500 -800 Descending Atlanta Center
Mon 08:15:07 PM 35.4569 -82.4069 209° Southwest 286 329 24,000 -250 Descending Atlanta Center
Mon 08:16:07 PM 35.3847 -82.4492 205° Southwest 280 322 24,000 -450 Level Atlanta Center
Mon 08:17:07 PM 35.3161 -82.4886 205° Southwest 275 316 23,100 -900 Descending Atlanta Center
Mon 08:18:07 PM 35.2417 -82.5358 207° Southwest 287 330 22,200 -550 Descending Atlanta Center
Mon 08:19:07 PM 35.1692 -82.5778 205° Southwest 292 336 22,000 -100 Descending Atlanta Center
Mon 08:20:07 PM 35.1050 -82.6247 211° Southwest 280 322 22,000 -1,100 Level Atlanta Center
Mon 08:21:07 PM 35.0283 -82.6639 203° Southwest 280 322 19,800 -1,950 Descending Atlanta Center
Mon 08:22:07 PM 34.9581 -82.7158 211° Southwest 293 337 18,100 -1,450 Descending Atlanta Center
Mon 08:23:07 PM 34.8914 -82.7497 203° Southwest 293 337 16,900 -1,250 Descending Atlanta Center
Mon 08:24:07 PM 34.8253 -82.7939 209° Southwest 272 313 15,600 -1,350 Descending Atlanta Center
Mon 08:25:07 PM 34.7631 -82.8353 209° Southwest 267 307 14,200 -1,500 Descending Atlanta Center
Mon 08:26:07 PM 34.6986 -82.8689 203° Southwest 267 307 12,600 -1,600 Descending Atlanta Center
Mon 08:27:07 PM 34.6197 -82.9181 207° Southwest 279 321 11,000 -1,350 Descending Atlanta Center
Mon 08:28:07 PM 34.5617 -82.9567 209° Southwest 279 321 9,900 -1,450 Descending Atlanta Center
Mon 08:29:07 PM 34.4972 -82.9928 205° Southwest 268 308 8,100 -1,900 Descending Atlanta Center
Mon 08:30:07 PM 34.4331 -83.0339 208° Southwest 268 308 6,100 -1,250 Descending Atlanta Center
Mon 08:31:07 PM 34.3747 -83.0672 205° Southwest 254 292 5,600 -900 Descending Atlanta Center
Mon 08:32:07 PM 34.3167 -83.1031 207° Southwest 238 274 4,300 -800 Descending Atlanta Center
Mon 08:33:07 PM 34.2606 -83.1364 206° Southwest 238 274 4,000 -200 Descending Atlanta Center
Mon 08:34:07 PM 34.2128 -83.1647 206° Southwest 220 253 3,900 -500 Descending Atlanta Center
Mon 08:35:07 PM 34.1567 -83.2003 208° Southwest 220 253 3,000 -450 Descending Atlanta Center
Mon 08:36:07 PM 34.1108 -83.2283 207° Southwest 208 239 3,000  Level Atlanta Center
Mon 08:37:07 PM 34.0506 -83.2642 206° Southwest 203 234 3,000 6,500 Level Atlanta Center
Mon 08:38:07 PM 33.9986 -83.2972 208° Southwest 203 234 16,000 6,500 Climbing Atlanta Center
Mon 08:39:07 PM 33.9467 -83.3275 206° Southwest 203 234 16,000  Level Atlanta Center
Mon 08:41:00 PM 33.9486 -83.3264 195° South  Level Estimated
Mon 08:48:00 PM 33.9486 -83.3264 195° South  Level Estimated
Mon 08:49:00 PM 33.9486 -83.3264 195° South  Level Estimated

Login

Don't have an account? Register now (free) for customized features, flight alerts, and more!